Time;durP1;ratioP1;P1;durP2;ratioP2;P2;SDS_P1;SDS_P2;PMS_P1;PMS_P2;Temp;Humidity;BMP_temperature;BMP_pressure;BME280_temperature;BME280_humidity;BME280_pressure;Samples;Min_cycle;Max_cycle;Signal;HPM_P1;HPM_P2
2022/07/23 00:00:21;;;;;;;5.95;4.45;;;19.00;99.90;;;;;;5048284;28;20195;-79
2022/07/23 00:02:49;;;;;;;5.30;4.72;;;18.90;99.90;;;;;;5053408;28;20213;-79
2022/07/23 00:05:16;;;;;;;6.15;4.47;;;18.70;99.90;;;;;;5049646;28;20233;-79
2022/07/23 00:07:44;;;;;;;7.05;5.10;;;18.60;99.90;;;;;;5054813;28;20205;-79
2022/07/23 00:10:11;;;;;;;5.40;4.85;;;18.50;99.90;;;;;;5042810;28;20206;-79
2022/07/23 00:12:39;;;;;;;6.00;4.80;;;18.60;99.90;;;;;;5031837;28;20198;-79
2022/07/23 00:15:11;;;;;;;9.73;5.43;;;18.70;99.90;;;;;;5046632;28;20238;-79
2022/07/23 00:17:39;;;;;;;5.65;4.90;;;18.70;99.90;;;;;;5034524;28;20214;-79
2022/07/23 00:20:08;;;;;;;6.60;5.40;;;18.60;99.90;;;;;;5057093;28;20233;-79
2022/07/23 00:22:36;;;;;;;6.35;5.15;;;18.30;99.90;;;;;;5042690;28;20192;-79
2022/07/23 00:25:04;;;;;;;6.43;5.53;;;18.30;99.90;;;;;;5033699;28;20237;-79
2022/07/23 00:27:31;;;;;;;7.32;5.57;;;18.30;99.90;;;;;;5032729;28;20198;-79
2022/07/23 00:29:59;;;;;;;8.10;5.53;;;18.00;99.90;;;;;;5047967;28;20600;-79
2022/07/23 00:32:26;;;;;;;6.68;5.40;;;17.90;99.90;;;;;;5050470;28;20710;-79
2022/07/23 00:34:55;;;;;;;10.48;5.43;;;17.70;99.90;;;;;;5035915;28;20225;-79
2022/07/23 00:37:23;;;;;;;7.47;5.40;;;17.90;99.90;;;;;;5031491;28;20214;-79
2022/07/23 00:39:50;;;;;;;7.28;5.43;;;18.00;99.90;;;;;;5043967;28;20198;-79
2022/07/23 00:42:18;;;;;;;6.97;6.22;;;18.10;99.90;;;;;;5028700;28;20198;-79
2022/07/23 00:44:47;;;;;;;8.40;6.00;;;18.10;99.90;;;;;;5031289;28;20241;-79
2022/07/23 00:47:14;;;;;;;7.53;5.50;;;18.00;99.90;;;;;;5046072;28;20199;-79
2022/07/23 00:49:42;;;;;;;7.10;5.80;;;18.10;99.90;;;;;;5033290;28;20212;-79
2022/07/23 00:52:10;;;;;;;6.22;5.45;;;18.10;99.90;;;;;;5049253;28;20199;-79
2022/07/23 00:54:38;;;;;;;10.63;6.28;;;18.20;99.90;;;;;;5047430;28;20734;-79
2022/07/23 00:57:05;;;;;;;6.88;6.18;;;18.20;99.90;;;;;;5043855;28;20221;-78
2022/07/23 00:59:33;;;;;;;7.07;5.80;;;18.00;99.90;;;;;;5032716;28;20202;-79
2022/07/23 01:02:00;;;;;;;8.40;6.72;;;18.10;99.90;;;;;;5029011;28;20214;-79
2022/07/23 01:04:28;;;;;;;7.35;6.63;;;18.20;99.90;;;;;;5049451;28;20249;-79
2022/07/23 01:06:55;;;;;;;7.40;6.53;;;18.20;99.90;;;;;;5046522;28;20203;-79
2022/07/23 01:09:24;;;;;;;8.40;5.72;;;18.20;99.90;;;;;;5026646;28;20203;-79
2022/07/23 01:11:54;;;;;;;5.55;5.03;;;18.10;99.90;;;;;;5059845;28;20195;-79
2022/07/23 01:14:22;;;;;;;8.63;6.95;;;18.00;99.90;;;;;;5038055;28;20223;-79
2022/07/23 01:16:50;;;;;;;8.40;6.57;;;17.90;99.90;;;;;;5038343;28;20226;-79
2022/07/23 01:19:18;;;;;;;10.60;6.55;;;17.90;99.90;;;;;;5042822;28;20207;-79
2022/07/23 01:21:49;;;;;;;8.75;6.40;;;17.90;99.90;;;;;;5034536;28;20214;-79
2022/07/23 01:24:19;;;;;;;9.07;7.00;;;18.10;99.90;;;;;;5044621;28;20387;-78
2022/07/23 01:26:55;;;;;;;8.40;6.40;;;18.10;99.90;;;;;;5044600;28;20205;-78
2022/07/23 01:29:23;;;;;;;6.93;5.95;;;18.10;99.90;;;;;;5036360;28;20198;-78
2022/07/23 01:31:51;;;;;;;8.93;6.85;;;18.20;99.90;;;;;;5051283;28;20590;-78
2022/07/23 01:34:18;;;;;;;8.98;7.57;;;18.10;99.90;;;;;;5055395;28;20612;-79
2022/07/23 01:36:46;;;;;;;7.70;6.97;;;17.90;99.90;;;;;;5036761;28;20245;-79
2022/07/23 01:39:15;;;;;;;7.43;6.47;;;17.90;99.90;;;;;;5040644;28;20233;-79
2022/07/23 01:41:44;;;;;;;8.82;7.10;;;17.90;99.90;;;;;;5034984;28;20198;-79
2022/07/23 01:44:12;;;;;;;8.00;6.90;;;18.10;99.90;;;;;;5046104;28;20215;-79
2022/07/23 01:46:41;;;;;;;11.85;7.15;;;18.20;99.90;;;;;;5034768;28;20684;-79
2022/07/23 01:49:09;;;;;;;7.57;6.88;;;18.10;99.90;;;;;;5035757;28;20206;-79
2022/07/23 01:51:59;;;;;;;8.48;7.30;;;18.10;99.90;;;;;;5059515;28;20198;-79
2022/07/23 01:54:27;;;;;;;8.63;6.63;;;18.00;99.90;;;;;;5052325;28;20668;-79
2022/07/23 01:56:57;;;;;;;8.48;7.30;;;18.10;99.90;;;;;;5051382;28;20229;-79
2022/07/23 01:59:25;;;;;;;7.95;7.15;;;18.20;99.90;;;;;;5047791;28;20197;-79
2022/07/23 02:01:53;;;;;;;8.00;6.50;;;18.20;99.90;;;;;;5048247;28;20205;-79
2022/07/23 02:04:21;;;;;;;8.15;6.57;;;18.30;99.90;;;;;;5037100;28;20226;-79
2022/07/23 02:06:49;;;;;;;7.80;7.00;;;18.30;99.90;;;;;;5030765;28;20226;-79
2022/07/23 02:09:18;;;;;;;9.45;7.57;;;18.50;99.90;;;;;;5053834;28;20209;-79
2022/07/23 02:11:48;;;;;;;7.57;6.78;;;18.40;99.90;;;;;;5052944;28;20206;-79
2022/07/23 02:14:17;;;;;;;7.43;6.72;;;18.30;99.90;;;;;;5031753;28;20222;-79
2022/07/23 02:16:44;;;;;;;10.30;7.25;;;18.40;99.90;;;;;;5037390;28;20214;-79
2022/07/23 02:19:12;;;;;;;8.15;7.35;;;18.30;99.90;;;;;;5033952;28;20203;-79
2022/07/23 02:21:39;;;;;;;10.23;7.07;;;18.10;99.90;;;;;;5030309;28;20194;-79
2022/07/23 02:24:07;;;;;;;8.35;6.70;;;18.20;99.90;;;;;;5036968;28;20237;-79
2022/07/23 02:26:35;;;;;;;8.02;7.22;;;18.30;99.90;;;;;;5034383;28;20191;-79
2022/07/23 02:29:06;;;;;;;7.45;6.68;;;18.40;99.90;;;;;;5052380;28;20225;-79
2022/07/23 02:31:35;;;;;;;8.75;7.80;;;18.40;99.90;;;;;;5052037;28;20201;-78
2022/07/23 02:34:03;;;;;;;8.88;7.90;;;18.40;99.90;;;;;;5036915;28;20226;-78
2022/07/23 02:36:31;;;;;;;10.32;7.82;;;18.30;99.90;;;;;;5049597;28;20584;-79
2022/07/23 02:39:00;;;;;;;9.85;8.57;;;18.30;99.90;;;;;;5051567;28;20206;-79
2022/07/23 02:41:30;;;;;;;7.88;7.13;;;18.20;99.90;;;;;;5036163;28;20206;-79
2022/07/23 02:43:57;;;;;;;10.23;8.15;;;18.30;99.90;;;;;;5043693;28;20201;-79
2022/07/23 02:46:25;;;;;;;8.23;6.95;;;18.30;99.90;;;;;;5052220;28;20191;-79
2022/07/23 02:48:54;;;;;;;8.00;7.13;;;18.40;99.90;;;;;;5048996;28;20195;-79
2022/07/23 02:51:21;;;;;;;9.25;8.13;;;18.40;99.90;;;;;;5036510;28;20191;-79
2022/07/23 02:53:55;;;;;;;7.75;7.05;;;18.50;99.90;;;;;;5032477;28;20213;-79
2022/07/23 02:56:23;;;;;;;9.35;7.68;;;18.50;99.90;;;;;;5032755;28;20195;-79
2022/07/23 02:58:50;;;;;;;8.93;7.82;;;18.40;99.90;;;;;;5036722;28;20202;-79
2022/07/23 03:01:19;;;;;;;8.60;7.75;;;18.30;99.90;;;;;;5041361;28;20202;-79
2022/07/23 03:03:47;;;;;;;10.15;7.97;;;18.20;99.90;;;;;;5037415;28;20209;-79
2022/07/23 03:06:16;;;;;;;9.05;8.13;;;18.20;99.90;;;;;;5051593;28;20201;-79
2022/07/23 03:08:44;;;;;;;9.30;8.32;;;18.20;99.90;;;;;;5037382;28;20203;-79
2022/07/23 03:11:11;;;;;;;9.50;7.45;;;18.00;99.90;;;;;;5051209;28;20195;-79
2022/07/23 03:13:40;;;;;;;10.90;8.75;;;17.90;99.90;;;;;;5048401;28;20211;-79
2022/07/23 03:16:08;;;;;;;10.27;8.35;;;17.80;99.90;;;;;;5035134;28;20198;-79
2022/07/23 03:18:38;;;;;;;8.93;7.47;;;17.80;99.90;;;;;;5034338;28;20218;-78
2022/07/23 03:21:05;;;;;;;8.77;7.97;;;17.80;99.90;;;;;;5024612;28;20241;-78
2022/07/23 03:23:35;;;;;;;8.75;7.85;;;17.90;99.90;;;;;;5034875;28;20246;-79
2022/07/23 03:26:03;;;;;;;9.77;7.95;;;18.00;99.90;;;;;;5033742;28;20215;-79
2022/07/23 03:28:30;;;;;;;9.13;8.18;;;18.00;99.90;;;;;;5050522;28;20198;-78
2022/07/23 03:30:58;;;;;;;9.18;7.93;;;18.00;99.90;;;;;;5050829;28;20558;-78
2022/07/23 03:33:26;;;;;;;9.48;8.40;;;18.00;99.90;;;;;;5032735;28;20204;-79
2022/07/23 03:35:54;;;;;;;9.68;8.68;;;17.80;99.90;;;;;;5032600;28;20237;-79
2022/07/23 03:38:26;;;;;;;11.88;8.50;;;17.70;99.90;;;;;;5050669;28;20214;-79
2022/07/23 03:40:56;;;;;;;9.07;7.65;;;17.70;99.90;;;;;;5049956;28;20203;-79
2022/07/23 03:43:25;;;;;;;9.35;8.25;;;17.80;99.90;;;;;;5035438;28;20194;-79
2022/07/23 03:45:53;;;;;;;8.60;7.80;;;17.80;99.90;;;;;;5046472;28;20234;-79
2022/07/23 03:48:20;;;;;;;10.65;8.00;;;17.90;99.90;;;;;;5029851;28;20218;-79
2022/07/23 03:50:48;;;;;;;8.93;7.70;;;18.00;99.90;;;;;;5030473;28;20538;-79
2022/07/23 03:53:15;;;;;;;9.57;7.90;;;18.30;99.90;;;;;;5032583;28;20195;-79
2022/07/23 03:55:43;;;;;;;9.98;8.90;;;18.10;99.90;;;;;;5029286;28;20218;-79
2022/07/23 03:58:11;;;;;;;6.22;5.55;;;18.20;99.90;;;;;;5051756;28;20226;-79
2022/07/23 04:00:40;;;;;;;10.23;7.93;;;18.30;99.90;;;;;;5031387;28;20209;-79
2022/07/23 04:03:08;;;;;;;9.50;7.78;;;18.10;99.90;;;;;;5052854;28;20198;-82
2022/07/23 04:05:36;;;;;;;9.38;8.38;;;18.20;99.90;;;;;;5032705;28;20225;-82
2022/07/23 04:08:08;;;;;;;8.25;6.85;;;18.00;99.90;;;;;;5052096;28;20205;-82
2022/07/23 04:10:39;;;;;;;9.57;7.28;;;18.00;99.90;;;;;;5052041;28;20199;-82
2022/07/23 04:13:09;;;;;;;9.07;8.18;;;18.30;99.90;;;;;;5036668;28;20211;-82
2022/07/23 04:15:38;;;;;;;9.57;7.65;;;17.90;99.90;;;;;;5052069;28;20599;-82
2022/07/23 04:18:07;;;;;;;9.52;6.72;;;18.10;99.90;;;;;;5031405;28;20210;-82
2022/07/23 04:20:51;;;;;;;8.43;7.07;;;18.20;99.90;;;;;;5051105;28;20198;-82
2022/07/23 04:23:19;;;;;;;8.18;6.80;;;18.50;99.90;;;;;;5051166;28;20195;-82
2022/07/23 04:25:46;;;;;;;7.95;7.18;;;18.40;99.90;;;;;;5048955;28;20229;-81
2022/07/23 04:28:14;;;;;;;10.00;7.65;;;18.20;99.90;;;;;;5034683;28;20195;-82
2022/07/23 04:30:44;;;;;;;8.93;7.88;;;18.10;99.90;;;;;;5051796;28;20203;-82
2022/07/23 04:33:13;;;;;;;7.85;6.60;;;18.10;99.90;;;;;;5035012;28;20191;-81
2022/07/23 04:35:41;;;;;;;6.65;5.88;;;18.10;99.90;;;;;;5034457;28;20237;-82
2022/07/23 04:38:20;;;;;;;6.10;4.95;;;18.50;99.90;;;;;;5030992;28;20214;-82
2022/07/23 04:40:50;;;;;;;7.35;6.60;;;18.80;99.90;;;;;;5046718;28;20194;-81
2022/07/23 04:43:19;;;;;;;8.52;7.18;;;18.70;99.90;;;;;;5034431;28;20198;-82
2022/07/23 04:45:53;;;;;;;8.93;7.53;;;18.70;99.90;;;;;;5051067;28;20233;-82
2022/07/23 04:48:20;;;;;;;7.35;6.43;;;18.80;99.90;;;;;;5037958;28;20193;-81
2022/07/23 04:50:51;;;;;;;8.63;7.72;;;18.70;99.90;;;;;;5034861;28;20218;-82
2022/07/23 04:53:23;;;;;;;9.15;8.25;;;18.50;99.90;;;;;;5035404;28;20198;-82
2022/07/23 04:55:54;;;;;;;9.07;8.20;;;18.20;99.90;;;;;;5051965;28;20210;-82
2022/07/23 04:58:22;;;;;;;8.80;7.90;;;18.60;99.90;;;;;;5035614;28;20681;-81
2022/07/23 05:00:50;;;;;;;8.90;7.80;;;18.40;99.90;;;;;;5064917;28;20207;-81
2022/07/23 05:03:19;;;;;;;8.27;7.47;;;18.40;99.90;;;;;;5065573;28;20199;-81
2022/07/23 05:05:48;;;;;;;8.55;7.75;;;18.20;99.90;;;;;;5048731;28;20711;-81
2022/07/23 05:08:18;;;;;;;10.35;9.07;;;18.20;99.90;;;;;;5051178;28;20175;-81
2022/07/23 05:10:51;;;;;;;11.73;8.85;;;18.00;99.90;;;;;;5051104;28;20202;-81
2022/07/23 05:13:20;;;;;;;9.55;8.00;;;18.00;99.90;;;;;;5073157;28;20206;-81
2022/07/23 05:15:47;;;;;;;6.65;6.03;;;17.90;99.90;;;;;;5039078;28;20223;-82
2022/07/23 05:18:15;;;;;;;6.93;6.22;;;18.20;99.90;;;;;;5034862;28;20223;-82
2022/07/23 05:20:44;;;;;;;9.40;8.40;;;18.80;99.90;;;;;;5043002;28;20195;-82
2022/07/23 05:23:15;;;;;;;9.10;8.10;;;18.70;99.90;;;;;;5050374;28;20194;-82
2022/07/23 05:25:59;;;;;;;6.70;5.75;;;19.00;99.90;;;;;;5038918;28;20218;-82
2022/07/23 05:28:27;;;;;;;10.38;8.57;;;19.30;99.90;;;;;;5032645;28;20199;-82
2022/07/23 05:31:00;;;;;;;7.57;6.57;;;19.40;99.90;;;;;;5028061;28;20207;-82
2022/07/23 05:33:31;;;;;;;8.50;7.70;;;19.40;99.90;;;;;;5043206;28;20193;-82
2022/07/23 05:36:03;;;;;;;10.07;9.02;;;19.60;99.90;;;;;;5037166;28;20671;-82
2022/07/23 05:38:33;;;;;;;10.20;7.40;;;19.50;99.90;;;;;;5036149;28;20214;-82
2022/07/23 05:41:02;;;;;;;7.90;6.57;;;19.40;99.90;;;;;;5050692;28;20198;-81
2022/07/23 05:43:34;;;;;;;6.78;6.18;;;19.40;99.90;;;;;;5025554;28;20203;-82
2022/07/23 05:46:08;;;;;;;10.80;9.70;;;19.70;99.90;;;;;;5035638;28;20206;-82
2022/07/23 05:48:38;;;;;;;9.32;7.28;;;19.70;99.90;;;;;;5039332;28;20209;-82
2022/07/23 05:51:14;;;;;;;9.70;8.70;;;19.40;99.90;;;;;;5035014;28;20678;-82
2022/07/23 05:53:45;;;;;;;7.45;6.70;;;19.40;99.90;;;;;;5035482;28;20190;-83
2022/07/23 05:56:20;;;;;;;10.55;8.85;;;19.60;99.90;;;;;;5037107;28;20198;-81
2022/07/23 05:58:50;;;;;;;10.00;8.00;;;19.50;99.90;;;;;;5042795;28;20222;-81
2022/07/23 06:01:26;;;;;;;9.52;7.85;;;19.70;99.90;;;;;;5023801;28;20199;-82
2022/07/23 06:04:03;;;;;;;9.88;8.88;;;19.90;99.90;;;;;;5034960;28;20232;-82
2022/07/23 06:06:37;;;;;;;11.13;9.65;;;19.60;99.90;;;;;;5032090;28;20190;-82
2022/07/23 06:09:06;;;;;;;8.00;7.20;;;19.30;99.90;;;;;;5037470;28;20210;-82
2022/07/23 06:11:36;;;;;;;7.72;6.80;;;19.50;99.90;;;;;;5050298;28;20595;-82
2022/07/23 06:14:11;;;;;;;11.13;9.75;;;19.80;99.90;;;;;;5050525;28;20237;-81
2022/07/23 06:16:48;;;;;;;10.27;9.27;;;20.00;99.90;;;;;;5028649;28;20211;-82
2022/07/23 06:19:16;;;;;;;13.10;9.90;;;20.00;99.90;;;;;;5026706;28;20222;-82
2022/07/23 06:21:45;;;;;;;9.50;8.50;;;20.00;99.90;;;;;;5055066;28;20217;-82
2022/07/23 06:24:13;;;;;;;14.07;10.25;;;20.10;99.90;;;;;;5046291;28;20727;-82
2022/07/23 06:26:40;;;;;;;20.17;9.93;;;20.00;99.90;;;;;;5048744;28;20205;-82
2022/07/23 06:29:08;;;;;;;18.10;10.43;;;20.10;99.90;;;;;;5053434;28;20202;-82
2022/07/23 06:31:36;;;;;;;13.77;11.95;;;20.30;99.90;;;;;;5031217;28;20194;-82
2022/07/23 06:34:04;;;;;;;15.52;12.35;;;20.00;99.90;;;;;;5043593;28;20218;-81
2022/07/23 06:36:31;;;;;;;13.95;11.95;;;19.60;99.90;;;;;;5043941;28;20206;-82
2022/07/23 06:39:02;;;;;;;12.45;11.15;;;19.40;99.90;;;;;;5051483;28;20222;-82
2022/07/23 06:41:30;;;;;;;14.77;13.30;;;19.50;99.90;;;;;;5048831;28;20562;-82
2022/07/23 06:43:59;;;;;;;18.73;14.27;;;19.40;99.90;;;;;;5053047;28;20225;-81
2022/07/23 06:46:36;;;;;;;15.98;12.57;;;19.40;99.90;;;;;;5044350;28;20191;-82
2022/07/23 06:49:06;;;;;;;13.90;10.50;;;19.50;99.90;;;;;;5050798;28;20205;-81
2022/07/23 06:51:33;;;;;;;12.77;9.68;;;20.00;99.90;;;;;;5034027;28;20202;-82
2022/07/23 06:54:04;;;;;;;14.80;11.70;;;20.30;99.90;;;;;;5045632;28;20203;-81
2022/07/23 06:56:31;;;;;;;12.23;10.00;;;20.40;99.90;;;;;;5048065;28;20187;-82
2022/07/23 06:59:01;;;;;;;165.15;48.70;;;20.40;99.90;;;;;;5035965;28;20210;-81
2022/07/23 07:01:28;;;;;;;16.92;12.93;;;20.60;99.90;;;;;;5042342;28;20198;-81
2022/07/23 07:03:56;;;;;;;16.65;14.48;;;20.70;99.90;;;;;;5046177;28;20206;-81
2022/07/23 07:06:23;;;;;;;15.93;14.23;;;20.80;99.90;;;;;;5034857;28;20199;-82
2022/07/23 07:08:51;;;;;;;20.58;16.58;;;20.90;99.90;;;;;;5025022;28;20692;-81
2022/07/23 07:11:19;;;;;;;20.83;17.02;;;20.90;99.90;;;;;;5051016;28;20198;-81
2022/07/23 07:13:47;;;;;;;15.95;13.30;;;20.70;99.90;;;;;;5054270;28;20187;-82
2022/07/23 07:16:23;;;;;;;14.85;13.02;;;20.60;99.90;;;;;;5027583;28;20675;-82
2022/07/23 07:18:50;;;;;;;13.77;11.23;;;20.60;99.90;;;;;;5053761;28;20213;-83
2022/07/23 07:21:18;;;;;;;11.85;10.07;;;20.80;99.90;;;;;;5054052;28;20194;-84
2022/07/23 07:23:45;;;;;;;11.50;9.98;;;20.90;99.90;;;;;;5035036;28;20210;-83
2022/07/23 07:26:16;;;;;;;12.32;10.63;;;21.00;99.90;;;;;;5022350;28;20218;-83
2022/07/23 07:28:45;;;;;;;12.85;11.38;;;21.00;99.90;;;;;;5028490;28;20202;-82
2022/07/23 07:31:12;;;;;;;12.95;11.32;;;20.90;99.90;;;;;;5051344;28;20202;-83
2022/07/23 07:33:40;;;;;;;13.05;10.70;;;20.80;99.90;;;;;;5022665;28;20195;-82
2022/07/23 07:36:08;;;;;;;13.45;10.65;;;20.70;99.90;;;;;;5034150;28;20202;-82
2022/07/23 07:38:35;;;;;;;12.10;10.60;;;20.70;99.90;;;;;;5038766;28;20214;-83
2022/07/23 07:41:05;;;;;;;10.55;9.07;;;20.70;99.90;;;;;;5036096;28;20577;-82
2022/07/23 07:43:32;;;;;;;12.15;8.98;;;20.80;99.90;;;;;;5048235;28;20203;-83
2022/07/23 07:46:04;;;;;;;13.82;9.23;;;20.70;99.90;;;;;;5024515;28;20575;-82
2022/07/23 07:48:33;;;;;;;10.15;7.57;;;20.70;99.90;;;;;;5051727;28;20194;-83
2022/07/23 07:51:00;;;;;;;10.55;7.45;;;20.70;99.90;;;;;;5034912;28;20198;-83
2022/07/23 07:53:34;;;;;;;8.35;7.28;;;20.60;99.90;;;;;;5045341;28;20211;-82
2022/07/23 07:56:02;;;;;;;7.13;6.30;;;20.60;99.90;;;;;;5054893;28;20222;-83
2022/07/23 07:58:31;;;;;;;6.97;6.13;;;20.60;99.90;;;;;;5031127;28;21026;-83
2022/07/23 08:00:58;;;;;;;8.18;5.90;;;20.70;99.90;;;;;;5049963;28;20226;-81
2022/07/23 08:03:27;;;;;;;6.45;4.57;;;20.80;99.90;;;;;;5016663;28;20195;-82
2022/07/23 08:05:55;;;;;;;6.28;5.53;;;21.00;99.90;;;;;;5038637;28;20219;-82
2022/07/23 08:08:23;;;;;;;8.35;7.53;;;21.10;99.90;;;;;;5046292;28;20202;-82
2022/07/23 08:10:50;;;;;;;9.07;8.30;;;21.00;99.90;;;;;;5034464;28;20221;-82
2022/07/23 08:13:20;;;;;;;9.20;8.48;;;20.80;99.90;;;;;;5036211;28;20202;-81
2022/07/23 08:15:47;;;;;;;8.57;7.88;;;20.90;99.90;;;;;;5025293;28;20715;-82
2022/07/23 08:18:15;;;;;;;10.90;9.80;;;21.00;99.90;;;;;;5047679;28;20198;-81
2022/07/23 08:20:44;;;;;;;10.80;9.90;;;20.70;99.90;;;;;;5036725;28;20230;-82
2022/07/23 08:23:12;;;;;;;10.27;9.27;;;20.70;99.90;;;;;;5025920;28;20198;-82
2022/07/23 08:25:40;;;;;;;10.68;9.68;;;20.70;99.90;;;;;;5037677;28;20229;-81
2022/07/23 08:28:09;;;;;;;8.23;7.50;;;20.70;99.90;;;;;;5029533;28;20205;-82
2022/07/23 08:30:38;;;;;;;9.07;8.20;;;20.80;99.90;;;;;;5049904;28;20198;-82
2022/07/23 08:33:07;;;;;;;10.52;9.52;;;20.80;99.90;;;;;;5043695;28;20214;-82
2022/07/23 08:35:37;;;;;;;10.82;9.27;;;20.90;99.90;;;;;;5032735;28;20228;-81
2022/07/23 08:38:11;;;;;;;10.88;9.93;;;20.60;99.90;;;;;;5044024;28;20214;-81
2022/07/23 08:40:41;;;;;;;10.63;9.52;;;20.60;99.90;;;;;;5046873;28;20207;-82
2022/07/23 08:43:11;;;;;;;9.25;8.38;;;20.70;99.90;;;;;;5035795;28;20209;-82
2022/07/23 08:45:40;;;;;;;9.75;8.77;;;20.60;99.90;;;;;;5050581;28;20237;-81
2022/07/23 08:48:12;;;;;;;9.13;8.27;;;20.70;99.90;;;;;;5058714;28;20197;-82
2022/07/23 08:50:43;;;;;;;9.05;8.10;;;20.90;99.90;;;;;;5038573;28;20579;-82
2022/07/23 08:53:16;;;;;;;9.73;8.82;;;20.70;99.90;;;;;;5053052;28;20198;-82
2022/07/23 08:55:45;;;;;;;10.20;9.20;;;20.70;99.90;;;;;;5045750;28;20229;-81
2022/07/23 08:58:13;;;;;;;8.75;8.05;;;20.90;99.90;;;;;;5046530;28;20205;-82
2022/07/23 09:00:41;;;;;;;8.95;8.25;;;20.70;99.90;;;;;;5049685;28;20290;-82
2022/07/23 09:03:08;;;;;;;7.50;6.80;;;20.70;99.90;;;;;;5035695;28;20198;-82
2022/07/23 09:05:36;;;;;;;6.95;6.32;;;20.80;99.90;;;;;;5041642;28;20665;-81
2022/07/23 09:08:08;;;;;;;7.07;6.35;;;20.80;99.90;;;;;;5043187;28;20203;-81
2022/07/23 09:10:51;;;;;;;7.03;6.32;;;20.90;99.90;;;;;;5060231;28;20199;-81
2022/07/23 09:13:27;;;;;;;7.00;6.38;;;20.80;99.90;;;;;;5047253;28;20194;-82
2022/07/23 09:15:58;;;;;;;6.10;5.50;;;20.90;99.90;;;;;;5036732;28;20222;-82
2022/07/23 09:18:43;;;;;;;5.90;5.38;;;21.10;99.90;;;;;;5046578;28;20202;-82
2022/07/23 09:21:19;;;;;;;5.90;4.97;;;21.10;99.90;;;;;;5037125;28;20222;-82
2022/07/23 09:23:51;;;;;;;7.68;6.60;;;21.20;99.90;;;;;;5038233;28;20206;-82
2022/07/23 09:26:25;;;;;;;8.45;5.50;;;21.30;99.90;;;;;;5046479;28;20207;-82
2022/07/23 09:29:02;;;;;;;6.72;5.88;;;21.30;99.90;;;;;;5046431;28;20202;-82
2022/07/23 09:31:42;;;;;;;6.13;4.70;;;21.30;99.90;;;;;;5048517;28;20223;-81
2022/07/23 09:34:17;;;;;;;7.63;5.00;;;21.40;99.90;;;;;;5038821;28;20750;-82
2022/07/23 09:36:45;;;;;;;5.15;4.65;;;21.20;99.90;;;;;;5050275;28;20281;-81
2022/07/23 09:39:22;;;;;;;5.00;4.47;;;21.30;99.90;;;;;;5051516;28;20189;-82
2022/07/23 09:41:53;;;;;;;5.80;5.30;;;21.40;99.90;;;;;;5034660;28;20221;-82
2022/07/23 09:44:21;;;;;;;5.57;5.03;;;21.40;99.90;;;;;;5048031;28;20230;-82
2022/07/23 09:46:50;;;;;;;7.07;6.38;;;21.40;99.90;;;;;;5048015;28;20528;-82
2022/07/23 09:49:22;;;;;;;7.13;6.43;;;21.40;99.90;;;;;;5052548;28;20221;-82
2022/07/23 09:51:52;;;;;;;6.40;5.80;;;21.40;99.90;;;;;;5029815;28;20195;-82
2022/07/23 09:54:39;;;;;;;7.00;6.00;;;21.50;99.90;;;;;;5029566;28;20218;-82
2022/07/23 09:57:14;;;;;;;6.57;5.93;;;21.50;99.90;;;;;;5045492;28;20205;-82
2022/07/23 09:59:42;;;;;;;7.28;5.82;;;21.30;99.90;;;;;;5036787;28;20194;-82
2022/07/23 10:02:12;;;;;;;6.18;5.28;;;21.30;99.90;;;;;;5025792;28;20199;-82
2022/07/23 10:05:13;;;;;;;4.82;4.18;;;21.70;99.90;;;;;;5021851;28;20222;-82
2022/07/23 10:08:13;;;;;;;5.03;3.75;;;21.80;99.90;;;;;;5053104;28;20564;-81
2022/07/23 10:10:40;;;;;;;5.00;4.50;;;22.00;99.90;;;;;;5043754;28;20195;-81
2022/07/23 10:16:16;;;;;;;6.55;4.25;;;21.80;99.90;;;;;;5031085;28;20206;-82
2022/07/23 10:18:43;;;;;;;4.90;4.28;;;22.00;99.90;;;;;;5049049;28;20209;-82
2022/07/23 10:21:11;;;;;;;4.55;4.15;;;22.10;99.90;;;;;;5045725;28;20223;-82
2022/07/23 10:23:48;;;;;;;3.63;3.10;;;22.10;99.90;;;;;;5030017;28;20206;-82
2022/07/23 10:26:33;;;;;;;4.30;3.60;;;22.20;99.90;;;;;;5030878;28;20205;-82
2022/07/23 10:29:14;;;;;;;4.05;3.75;;;22.20;98.60;;;;;;5029437;28;20205;-81
2022/07/23 10:32:05;;;;;;;3.80;3.17;;;22.20;99.40;;;;;;5040157;28;20195;-82
2022/07/23 10:34:42;;;;;;;5.18;4.50;;;22.20;98.50;;;;;;5030579;28;20225;-81
2022/07/23 10:37:18;;;;;;;4.47;4.07;;;22.20;98.20;;;;;;5034772;28;20641;-81
2022/07/23 10:39:46;;;;;;;4.93;4.47;;;22.30;97.70;;;;;;5047014;28;20198;-81
2022/07/23 10:42:15;;;;;;;6.47;4.38;;;22.50;97.80;;;;;;5049276;28;20209;-81
2022/07/23 10:44:47;;;;;;;4.25;3.78;;;22.50;98.90;;;;;;5032097;28;20230;-81
2022/07/23 10:47:38;;;;;;;4.53;3.47;;;22.70;98.30;;;;;;5047451;28;20546;-81
2022/07/23 10:50:20;;;;;;;4.40;3.60;;;22.90;97.30;;;;;;5045084;28;20198;-81
2022/07/23 10:53:09;;;;;;;4.90;3.08;;;22.80;96.60;;;;;;5026336;28;20203;-82
2022/07/23 10:55:48;;;;;;;3.42;3.10;;;22.90;96.50;;;;;;5033652;28;20226;-82
2022/07/23 10:58:33;;;;;;;4.38;3.83;;;23.00;96.30;;;;;;5024741;28;20205;-82
2022/07/23 11:01:03;;;;;;;4.20;3.78;;;23.20;95.00;;;;;;5039141;28;20211;-82
2022/07/23 11:03:37;;;;;;;3.80;2.88;;;23.20;96.10;;;;;;5052216;28;20199;-82
2022/07/23 11:06:18;;;;;;;3.33;2.92;;;23.40;95.50;;;;;;5027131;28;20696;-83
2022/07/23 11:09:24;;;;;;;4.18;3.80;;;23.30;95.90;;;;;;5028966;28;20198;-82
2022/07/23 11:12:24;;;;;;;4.70;3.85;;;22.80;96.70;;;;;;5050115;28;20194;-82
2022/07/23 11:15:02;;;;;;;4.35;3.55;;;22.70;97.00;;;;;;5044858;28;20219;-82
2022/07/23 11:17:32;;;;;;;3.35;2.67;;;22.80;96.40;;;;;;5027239;28;20566;-82
2022/07/23 11:20:22;;;;;;;6.05;3.30;;;23.00;95.40;;;;;;5031599;28;20214;-82
2022/07/23 11:22:52;;;;;;;4.07;3.08;;;23.30;95.40;;;;;;5037141;28;20199;-82
2022/07/23 11:25:35;;;;;;;4.15;2.78;;;23.70;95.00;;;;;;5039575;28;20219;-82
2022/07/23 11:28:16;;;;;;;4.57;3.22;;;23.80;94.60;;;;;;5048449;28;20205;-82
2022/07/23 11:30:45;;;;;;;3.00;2.70;;;23.70;93.90;;;;;;5049028;28;20197;-83
2022/07/23 11:33:21;;;;;;;3.85;3.35;;;23.80;93.40;;;;;;5046290;28;20583;-82
2022/07/23 11:36:02;;;;;;;3.75;3.08;;;24.10;93.60;;;;;;5030312;28;20248;-81
2022/07/23 11:38:32;;;;;;;4.22;2.65;;;24.30;92.80;;;;;;5047592;28;20572;-82
2022/07/23 11:41:00;;;;;;;3.05;2.80;;;24.30;92.40;;;;;;5030003;28;20222;-81
2022/07/23 11:43:28;;;;;;;3.20;2.63;;;24.50;92.10;;;;;;5044063;28;20541;-81
2022/07/23 11:45:59;;;;;;;3.10;2.80;;;24.40;91.50;;;;;;5040687;28;20222;-82
2022/07/23 11:48:30;;;;;;;2.97;2.50;;;24.10;90.90;;;;;;5042780;28;20202;-82
2022/07/23 11:50:58;;;;;;;2.58;2.35;;;24.30;91.20;;;;;;5032714;28;20213;-82
2022/07/23 11:53:28;;;;;;;2.70;2.50;;;24.60;90.70;;;;;;5048903;28;20214;-82
2022/07/23 11:56:05;;;;;;;2.83;2.55;;;24.50;90.60;;;;;;5034920;28;20233;-82
2022/07/23 11:58:33;;;;;;;4.85;3.20;;;24.70;91.30;;;;;;5034640;28;20205;-82
2022/07/23 12:01:00;;;;;;;4.30;3.30;;;24.70;90.40;;;;;;5021369;28;20230;-82
2022/07/23 12:03:29;;;;;;;3.25;2.72;;;24.50;90.40;;;;;;5030012;28;20206;-82
2022/07/23 12:05:58;;;;;;;2.95;2.30;;;24.90;90.50;;;;;;5042456;28;20241;-82
2022/07/23 12:08:26;;;;;;;4.07;2.50;;;25.10;90.30;;;;;;5034392;28;20194;-82
2022/07/23 12:10:53;;;;;;;5.35;2.97;;;25.30;89.60;;;;;;5031008;28;20206;-82
2022/07/23 12:13:22;;;;;;;4.82;3.20;;;25.40;88.30;;;;;;5030606;28;20641;-81
2022/07/23 12:15:52;;;;;;;4.03;3.45;;;25.00;89.50;;;;;;5039928;28;20689;-82
2022/07/23 12:18:35;;;;;;;3.40;3.10;;;25.10;89.70;;;;;;5025389;28;20194;-83
2022/07/23 12:21:06;;;;;;;3.60;2.97;;;25.30;89.10;;;;;;5031996;28;20195;-82
2022/07/23 12:23:34;;;;;;;2.97;2.50;;;25.20;90.00;;;;;;5043938;28;20205;-82
2022/07/23 12:26:03;;;;;;;2.70;2.50;;;25.60;89.20;;;;;;5031004;28;20233;-82
2022/07/23 12:28:33;;;;;;;4.07;2.45;;;25.80;86.20;;;;;;5052092;28;20201;-82
2022/07/23 12:31:01;;;;;;;3.17;2.38;;;25.90;87.90;;;;;;5052393;28;20202;-83
2022/07/23 12:33:31;;;;;;;2.67;2.47;;;25.90;85.40;;;;;;5034987;28;20209;-83
2022/07/23 12:36:03;;;;;;;4.30;2.67;;;25.90;83.40;;;;;;5036637;28;20218;-82
2022/07/23 12:38:39;;;;;;;4.82;3.20;;;26.20;82.90;;;;;;5034765;28;20601;-83
2022/07/23 12:41:07;;;;;;;4.93;3.65;;;25.60;82.80;;;;;;5035295;28;20199;-83
2022/07/23 12:43:37;;;;;;;3.70;3.40;;;25.80;82.40;;;;;;5033709;28;20675;-83
2022/07/23 12:46:06;;;;;;;3.33;3.03;;;25.20;83.20;;;;;;5056377;28;20230;-83
2022/07/23 12:48:36;;;;;;;3.80;2.78;;;25.00;84.80;;;;;;5053419;28;20562;-84
2022/07/23 12:51:06;;;;;;;3.20;2.47;;;24.70;85.00;;;;;;5052343;28;20199;-83
2022/07/23 12:53:40;;;;;;;3.28;2.45;;;25.00;85.90;;;;;;5035786;28;20199;-85
2022/07/23 12:56:09;;;;;;;3.92;2.85;;;25.20;83.70;;;;;;5047392;28;20218;-83
2022/07/23 12:58:46;;;;;;;2.92;2.63;;;25.30;82.90;;;;;;5069507;28;20209;-83
2022/07/23 13:01:24;;;;;;;3.08;2.40;;;25.70;82.80;;;;;;5052032;28;20186;-83
2022/07/23 13:04:04;;;;;;;3.33;2.60;;;25.80;80.30;;;;;;5068975;28;20190;-83